KSLC

Salt Lake City International Airport

Salt Lake City, Utah, USA
METAR KSLC 272354Z 24003KT 10SM FEW070 FEW090 SCT130 BKN180 BKN230 16/11 A3000 RMK VIRGA CB DSNT E-SE AND NW TCU DSNT N
Observed Flight Rules
May-27 @ 23:54 UTC (58 minutes ago) Visual Flight Rules
Wind Visibility Clouds
240° at 3 knots 10 miles
  • Few at 7,000' AGL
  • Few at 9,000' AGL
  • Scattered at 13,000' AGL
  • Broken at 18,000' AGL
Temperatures Readings
Current 16°C / 61°F
Dewpoint 11°C / 52°F
Humidity 72%
Altimeter 30" Hg
Pressure 1016 hPa
Elevation 1286
METAR KSLC 272354Z 24003KT 10SM FEW070 FEW090 SCT130 BKN180 BKN230 16/11 A3000 RMK VIRGA CB DSNT E-SE AND NW TCU DSNT N
Observed Flight Rules
May-27 @ 23:54 UTC
(58 minutes ago)
VFR
Wind Visibility
240° at 3 knots 10 miles
Clouds
  • Few at 7,000' AGL
  • Few at 9,000' AGL
  • Scattered at 13,000' AGL
  • Broken at 18,000' AGL
Temperature Dewpoint
16°C / 61°F 11°C / 52°F
Humidity Altimeter Pressure
72% 30" Hg 1016 hPa